AVA1018 SKRG-SKCC
Flight info
| Callsign | AVA1018 |
|---|---|
| Flight time | 0h 46m |
| Altitude | 23000 |
| Route | DIPRA1C DIPRA W26 PIE W34 ESNUT ESNUT2B |
| Aircraft | A320/M-SDE3FGHIRWY/LB1 |
Departure
| Time | 2026-04-21 21:38 |
|---|---|
| Airport | Jose Maria Córdova International Airport (SKRG) |
Arrival
| Time | 2026-04-21 22:24 |
|---|---|
| Airport | Camilo Daza International Airport (SKCC) |
| Time | Latitude | Longitude | Altitude | Speed | Heading |
|---|---|---|---|---|---|
| 2026-04-21 20:52 | 6.17032 | -75.42715 | 6989 ft | 0 kts | 306° |
| 2026-04-21 21:30 | 6.17023 | -75.42703 | 6989 ft | 3 kts | 306° |
| 2026-04-21 21:30 | 6.17007 | -75.42681 | 6988 ft | 3 kts | 304° |
| 2026-04-21 21:30 | 6.16991 | -75.42660 | 6988 ft | 3 kts | 304° |
| 2026-04-21 21:30 | 6.16977 | -75.42640 | 6988 ft | 1 kts | 304° |
| 2026-04-21 21:31 | 6.16976 | -75.42640 | 6987 ft | 0 kts | 304° |
| 2026-04-21 21:32 | 6.16977 | -75.42640 | 6987 ft | 0 kts | 308° |
| 2026-04-21 21:32 | 6.16980 | -75.42641 | 6987 ft | 1 kts | 347° |
| 2026-04-21 21:33 | 6.17011 | -75.42612 | 6988 ft | 11 kts | 72° |
| 2026-04-21 21:33 | 6.16952 | -75.42533 | 6986 ft | 18 kts | 149° |
| 2026-04-21 21:33 | 6.16828 | -75.42486 | 6982 ft | 20 kts | 176° |
| 2026-04-21 21:33 | 6.16676 | -75.42484 | 6978 ft | 22 kts | 180° |
| 2026-04-21 21:34 | 6.16510 | -75.42483 | 6974 ft | 24 kts | 179° |
| 2026-04-21 21:34 | 6.16329 | -75.42481 | 6970 ft | 26 kts | 180° |
| 2026-04-21 21:34 | 6.16143 | -75.42481 | 6966 ft | 27 kts | 180° |
| 2026-04-21 21:34 | 6.15946 | -75.42480 | 6962 ft | 28 kts | 180° |
| 2026-04-21 21:35 | 6.15742 | -75.42478 | 6959 ft | 29 kts | 180° |
| 2026-04-21 21:35 | 6.15538 | -75.42477 | 6958 ft | 29 kts | 179° |
| 2026-04-21 21:35 | 6.15333 | -75.42477 | 6957 ft | 29 kts | 180° |
| 2026-04-21 21:35 | 6.15131 | -75.42474 | 6956 ft | 29 kts | 179° |
| 2026-04-21 21:36 | 6.14930 | -75.42475 | 6955 ft | 28 kts | 187° |
| 2026-04-21 21:36 | 6.14816 | -75.42430 | 6955 ft | 16 kts | 93° |
| 2026-04-21 21:36 | 6.14886 | -75.42350 | 6955 ft | 16 kts | 29° |
| 2026-04-21 21:36 | 6.14995 | -75.42305 | 6956 ft | 15 kts | 6° |
| 2026-04-21 21:37 | 6.15220 | -75.42306 | 6957 ft | 62 kts | 360° |
| 2026-04-21 21:37 | 6.15874 | -75.42310 | 6963 ft | 123 kts | 0° |
| 2026-04-21 21:37 | 6.16925 | -75.42316 | 6987 ft | 174 kts | 359° |
| 2026-04-21 21:37 | 6.18183 | -75.42326 | 7456 ft | 183 kts | 358° |
| 2026-04-21 21:38 | 6.19467 | -75.42327 | 8106 ft | 186 kts | 359° |
| 2026-04-21 21:38 | 6.20765 | -75.42312 | 8688 ft | 189 kts | 5° |
| 2026-04-21 21:38 | 6.22004 | -75.41840 | 8951 ft | 199 kts | 40° |
| 2026-04-21 21:38 | 6.22756 | -75.40624 | 9191 ft | 214 kts | 77° |
| 2026-04-21 21:39 | 6.22758 | -75.39089 | 9450 ft | 228 kts | 94° |
| 2026-04-21 21:39 | 6.22886 | -75.37460 | 9628 ft | 246 kts | 71° |
| 2026-04-21 21:39 | 6.23573 | -75.35809 | 9920 ft | 261 kts | 63° |
| 2026-04-21 21:39 | 6.24425 | -75.34141 | 10226 ft | 278 kts | 62° |
| 2026-04-21 21:40 | 6.25342 | -75.32364 | 10527 ft | 295 kts | 62° |
| 2026-04-21 21:40 | 6.26296 | -75.30468 | 10850 ft | 313 kts | 63° |
| 2026-04-21 21:40 | 6.27294 | -75.28455 | 11149 ft | 330 kts | 63° |
| 2026-04-21 21:40 | 6.28343 | -75.26315 | 11416 ft | 347 kts | 63° |
| 2026-04-21 21:41 | 6.29426 | -75.24088 | 11666 ft | 363 kts | 64° |
| 2026-04-21 21:41 | 6.30519 | -75.21755 | 11914 ft | 378 kts | 64° |
| 2026-04-21 21:41 | 6.31643 | -75.19302 | 12320 ft | 388 kts | 65° |
| 2026-04-21 21:41 | 6.32769 | -75.16845 | 12836 ft | 391 kts | 65° |
| 2026-04-21 21:42 | 6.33906 | -75.14363 | 13312 ft | 394 kts | 65° |
| 2026-04-21 21:42 | 6.35063 | -75.11845 | 13788 ft | 396 kts | 65° |
| 2026-04-21 21:42 | 6.36215 | -75.09340 | 14268 ft | 398 kts | 65° |
| 2026-04-21 21:42 | 6.37389 | -75.06789 | 14715 ft | 401 kts | 65° |
| 2026-04-21 21:43 | 6.38522 | -75.04328 | 15142 ft | 403 kts | 65° |
| 2026-04-21 21:43 | 6.39705 | -75.01758 | 15564 ft | 405 kts | 65° |
| 2026-04-21 21:43 | 6.40897 | -74.99173 | 15986 ft | 407 kts | 65° |
| 2026-04-21 21:43 | 6.42096 | -74.96569 | 16372 ft | 410 kts | 65° |
| 2026-04-21 21:44 | 6.43294 | -74.93970 | 16765 ft | 411 kts | 66° |
| 2026-04-21 21:44 | 6.44505 | -74.91336 | 17121 ft | 414 kts | 65° |
| 2026-04-21 21:44 | 6.45715 | -74.88696 | 17486 ft | 416 kts | 65° |
| 2026-04-21 21:44 | 6.46927 | -74.86057 | 17876 ft | 416 kts | 65° |
| 2026-04-21 21:45 | 6.48140 | -74.83422 | 18282 ft | 416 kts | 65° |
| 2026-04-21 21:45 | 6.49373 | -74.80740 | 18632 ft | 417 kts | 65° |
| 2026-04-21 21:45 | 6.50584 | -74.78109 | 18927 ft | 420 kts | 65° |
| 2026-04-21 21:45 | 6.51817 | -74.75427 | 19241 ft | 421 kts | 65° |
| 2026-04-21 21:46 | 6.53059 | -74.72727 | 19547 ft | 423 kts | 65° |
| 2026-04-21 21:46 | 6.54306 | -74.70015 | 19825 ft | 425 kts | 65° |
| 2026-04-21 21:46 | 6.55544 | -74.67319 | 20114 ft | 427 kts | 65° |
| 2026-04-21 21:46 | 6.56804 | -74.64578 | 20375 ft | 429 kts | 65° |
| 2026-04-21 21:47 | 6.58059 | -74.61845 | 20661 ft | 430 kts | 65° |
| 2026-04-21 21:47 | 6.59317 | -74.59102 | 20940 ft | 432 kts | 65° |
| 2026-04-21 21:47 | 6.60572 | -74.56372 | 21178 ft | 434 kts | 65° |
| 2026-04-21 21:47 | 6.61931 | -74.53651 | 21427 ft | 436 kts | 62° |
| 2026-04-21 21:48 | 6.63413 | -74.50968 | 21700 ft | 437 kts | 60° |
| 2026-04-21 21:48 | 6.64919 | -74.48282 | 21947 ft | 439 kts | 60° |
| 2026-04-21 21:48 | 6.66425 | -74.45606 | 22181 ft | 440 kts | 60° |
| 2026-04-21 21:48 | 6.67946 | -74.42899 | 22430 ft | 442 kts | 60° |
| 2026-04-21 21:49 | 6.69457 | -74.40211 | 22636 ft | 444 kts | 60° |
| 2026-04-21 21:49 | 6.70972 | -74.37513 | 22872 ft | 446 kts | 60° |
| 2026-04-21 21:49 | 6.72511 | -74.34768 | 22923 ft | 446 kts | 60° |
| 2026-04-21 21:49 | 6.74042 | -74.32038 | 22924 ft | 446 kts | 60° |
| 2026-04-21 21:50 | 6.75559 | -74.29330 | 22917 ft | 447 kts | 60° |
| 2026-04-21 21:50 | 6.77085 | -74.26608 | 22913 ft | 447 kts | 60° |
| 2026-04-21 21:50 | 6.78614 | -74.23878 | 22906 ft | 447 kts | 60° |
| 2026-04-21 21:50 | 6.80152 | -74.21133 | 22906 ft | 447 kts | 60° |
| 2026-04-21 21:51 | 6.81677 | -74.18411 | 22907 ft | 447 kts | 60° |
| 2026-04-21 21:51 | 6.83197 | -74.15695 | 22905 ft | 447 kts | 60° |
| 2026-04-21 21:51 | 6.84741 | -74.12939 | 22900 ft | 447 kts | 60° |
| 2026-04-21 21:51 | 6.86264 | -74.10219 | 22899 ft | 448 kts | 60° |
| 2026-04-21 21:52 | 6.87797 | -74.07480 | 22886 ft | 449 kts | 60° |
| 2026-04-21 21:52 | 6.89313 | -74.04770 | 22883 ft | 449 kts | 60° |
| 2026-04-21 21:52 | 6.90872 | -74.01985 | 22869 ft | 449 kts | 60° |
| 2026-04-21 21:52 | 6.92403 | -73.99249 | 22866 ft | 448 kts | 60° |
| 2026-04-21 21:53 | 6.93934 | -73.96511 | 22860 ft | 447 kts | 60° |
| 2026-04-21 21:53 | 6.95461 | -73.93782 | 22865 ft | 447 kts | 60° |
| 2026-04-21 21:53 | 6.96988 | -73.91049 | 22871 ft | 447 kts | 60° |
| 2026-04-21 21:53 | 6.98515 | -73.88316 | 22873 ft | 448 kts | 60° |
| 2026-04-21 21:54 | 7.00052 | -73.85568 | 22878 ft | 449 kts | 60° |
| 2026-04-21 21:54 | 7.01398 | -73.82708 | 22882 ft | 449 kts | 71° |
| 2026-04-21 21:54 | 7.02071 | -73.79635 | 22887 ft | 450 kts | 84° |
| 2026-04-21 21:54 | 7.02046 | -73.76493 | 22896 ft | 451 kts | 96° |
| 2026-04-21 21:55 | 7.01489 | -73.73424 | 22901 ft | 451 kts | 101° |
| 2026-04-21 21:55 | 7.00831 | -73.70303 | 22903 ft | 450 kts | 101° |
| 2026-04-21 21:55 | 7.00174 | -73.67211 | 22923 ft | 450 kts | 101° |
| 2026-04-21 21:55 | 6.99529 | -73.64127 | 22926 ft | 449 kts | 101° |
| 2026-04-21 21:56 | 6.98916 | -73.61150 | 22939 ft | 448 kts | 101° |
| 2026-04-21 21:56 | 6.98286 | -73.58057 | 22963 ft | 448 kts | 101° |
| 2026-04-21 21:56 | 6.97661 | -73.54970 | 22989 ft | 447 kts | 101° |
| 2026-04-21 21:56 | 6.97042 | -73.51911 | 23022 ft | 447 kts | 101° |
| 2026-04-21 21:57 | 6.96427 | -73.48864 | 23032 ft | 448 kts | 101° |
| 2026-04-21 21:57 | 6.95803 | -73.45799 | 23039 ft | 448 kts | 101° |
| 2026-04-21 21:57 | 6.95179 | -73.42730 | 23060 ft | 448 kts | 101° |
| 2026-04-21 21:57 | 6.94550 | -73.39642 | 23092 ft | 448 kts | 101° |
| 2026-04-21 21:58 | 6.93921 | -73.36546 | 23111 ft | 448 kts | 101° |
| 2026-04-21 21:58 | 6.93293 | -73.33450 | 23114 ft | 448 kts | 101° |
| 2026-04-21 21:58 | 6.92663 | -73.30342 | 23126 ft | 447 kts | 101° |
| 2026-04-21 21:58 | 6.92035 | -73.27241 | 23141 ft | 447 kts | 101° |
| 2026-04-21 21:59 | 6.91412 | -73.24165 | 23144 ft | 447 kts | 101° |
| 2026-04-21 21:59 | 6.90795 | -73.21126 | 23152 ft | 446 kts | 101° |
| 2026-04-21 21:59 | 6.90172 | -73.18059 | 23182 ft | 446 kts | 101° |
| 2026-04-21 21:59 | 6.89777 | -73.14978 | 23183 ft | 445 kts | 89° |
| 2026-04-21 22:00 | 6.90230 | -73.11885 | 23196 ft | 446 kts | 73° |
| 2026-04-21 22:00 | 6.91499 | -73.09060 | 23214 ft | 446 kts | 58° |
| 2026-04-21 22:00 | 6.93498 | -73.06661 | 23234 ft | 446 kts | 42° |
| 2026-04-21 22:00 | 6.96033 | -73.04894 | 23259 ft | 446 kts | 29° |
| 2026-04-21 22:01 | 6.98791 | -73.03392 | 23244 ft | 446 kts | 28° |
| 2026-04-21 22:01 | 7.01530 | -73.01924 | 23247 ft | 445 kts | 28° |
| 2026-04-21 22:01 | 7.04262 | -73.00452 | 23256 ft | 446 kts | 28° |
| 2026-04-21 22:01 | 7.07008 | -72.98965 | 23263 ft | 445 kts | 29° |
| 2026-04-21 22:02 | 7.09742 | -72.97477 | 23271 ft | 445 kts | 29° |
| 2026-04-21 22:02 | 7.12471 | -72.95986 | 23286 ft | 445 kts | 29° |
| 2026-04-21 22:02 | 7.15238 | -72.94472 | 23298 ft | 445 kts | 29° |
| 2026-04-21 22:02 | 7.17946 | -72.92989 | 23308 ft | 444 kts | 29° |
| 2026-04-21 22:03 | 7.20679 | -72.91491 | 22890 ft | 447 kts | 29° |
| 2026-04-21 22:03 | 7.23413 | -72.89992 | 22080 ft | 449 kts | 29° |
| 2026-04-21 22:03 | 7.26156 | -72.88487 | 21473 ft | 445 kts | 28° |
| 2026-04-21 22:03 | 7.28893 | -72.86983 | 20880 ft | 440 kts | 28° |
| 2026-04-21 22:04 | 7.31573 | -72.85513 | 20281 ft | 435 kts | 28° |
| 2026-04-21 22:04 | 7.34226 | -72.84056 | 19711 ft | 430 kts | 28° |
| 2026-04-21 22:04 | 7.36836 | -72.82624 | 19135 ft | 425 kts | 28° |
| 2026-04-21 22:04 | 7.39433 | -72.81200 | 18619 ft | 419 kts | 28° |
| 2026-04-21 22:05 | 7.41954 | -72.79818 | 18239 ft | 409 kts | 28° |
| 2026-04-21 22:05 | 7.44440 | -72.78451 | 17909 ft | 398 kts | 28° |
| 2026-04-21 22:05 | 7.46869 | -72.77118 | 17691 ft | 385 kts | 27° |
| 2026-04-21 22:05 | 7.49193 | -72.75842 | 17470 ft | 372 kts | 27° |
| 2026-04-21 22:06 | 7.51446 | -72.74606 | 17184 ft | 364 kts | 27° |
| 2026-04-21 22:06 | 7.53655 | -72.73382 | 16530 ft | 368 kts | 28° |
| 2026-04-21 22:06 | 7.55908 | -72.72133 | 16005 ft | 366 kts | 28° |
| 2026-04-21 22:06 | 7.58123 | -72.70902 | 15708 ft | 356 kts | 27° |
| 2026-04-21 22:07 | 7.60247 | -72.69720 | 15452 ft | 337 kts | 28° |
| 2026-04-21 22:07 | 7.62236 | -72.68617 | 15187 ft | 319 kts | 27° |
| 2026-04-21 22:07 | 7.64170 | -72.67543 | 14916 ft | 302 kts | 28° |
| 2026-04-21 22:07 | 7.65971 | -72.66544 | 14664 ft | 288 kts | 28° |
| 2026-04-21 22:08 | 7.67638 | -72.65453 | 14406 ft | 282 kts | 41° |
| 2026-04-21 22:08 | 7.68869 | -72.63948 | 14161 ft | 278 kts | 59° |
| 2026-04-21 22:08 | 7.69587 | -72.62140 | 13913 ft | 274 kts | 76° |
| 2026-04-21 22:08 | 7.69743 | -72.60246 | 13673 ft | 271 kts | 93° |
| 2026-04-21 22:09 | 7.69405 | -72.58410 | 13440 ft | 267 kts | 101° |
| 2026-04-21 22:09 | 7.69167 | -72.56556 | 13201 ft | 264 kts | 86° |
| 2026-04-21 22:09 | 7.69469 | -72.54752 | 12961 ft | 261 kts | 68° |
| 2026-04-21 22:09 | 7.70299 | -72.53152 | 12720 ft | 258 kts | 51° |
| 2026-04-21 22:10 | 7.71570 | -72.51882 | 12485 ft | 255 kts | 33° |
| 2026-04-21 22:10 | 7.73124 | -72.51065 | 12262 ft | 252 kts | 17° |
| 2026-04-21 22:10 | 7.74839 | -72.50743 | 12047 ft | 246 kts | 1° |
| 2026-04-21 22:10 | 7.76527 | -72.50765 | 11965 ft | 235 kts | 358° |
| 2026-04-21 22:11 | 7.78161 | -72.50829 | 11911 ft | 233 kts | 358° |
| 2026-04-21 22:11 | 7.79793 | -72.50893 | 11906 ft | 235 kts | 358° |
| 2026-04-21 22:11 | 7.81430 | -72.50953 | 11938 ft | 235 kts | 358° |
| 2026-04-21 22:11 | 7.83078 | -72.51011 | 11942 ft | 230 kts | 358° |
| 2026-04-21 22:12 | 7.84677 | -72.51065 | 11929 ft | 229 kts | 358° |
| 2026-04-21 22:12 | 7.86303 | -72.51118 | 11893 ft | 229 kts | 358° |
| 2026-04-21 22:12 | 7.87896 | -72.51170 | 11826 ft | 229 kts | 358° |
| 2026-04-21 22:12 | 7.89497 | -72.51222 | 11811 ft | 228 kts | 358° |
| 2026-04-21 22:13 | 7.91087 | -72.51273 | 11702 ft | 228 kts | 359° |
| 2026-04-21 22:13 | 7.92679 | -72.51324 | 11551 ft | 228 kts | 358° |
| 2026-04-21 22:13 | 7.94284 | -72.51314 | 11279 ft | 231 kts | 2° |
| 2026-04-21 22:13 | 7.95927 | -72.51251 | 10923 ft | 233 kts | 2° |
| 2026-04-21 22:14 | 7.97537 | -72.51185 | 10682 ft | 229 kts | 2° |
| 2026-04-21 22:14 | 7.99120 | -72.51120 | 10427 ft | 225 kts | 2° |
| 2026-04-21 22:14 | 8.00668 | -72.51058 | 10120 ft | 223 kts | 2° |
| 2026-04-21 22:14 | 8.02244 | -72.50995 | 9805 ft | 223 kts | 3° |
| 2026-04-21 22:15 | 8.03783 | -72.50934 | 9494 ft | 221 kts | 3° |
| 2026-04-21 22:15 | 8.05328 | -72.50873 | 9168 ft | 221 kts | 3° |
| 2026-04-21 22:15 | 8.06866 | -72.50811 | 8846 ft | 220 kts | 3° |
| 2026-04-21 22:15 | 8.08400 | -72.50751 | 8557 ft | 219 kts | 3° |
| 2026-04-21 22:16 | 8.09921 | -72.50691 | 8240 ft | 218 kts | 3° |
| 2026-04-21 22:16 | 8.11458 | -72.50628 | 7935 ft | 217 kts | 3° |
| 2026-04-21 22:16 | 8.12923 | -72.50571 | 7641 ft | 216 kts | 3° |
| 2026-04-21 22:16 | 8.14431 | -72.50513 | 7324 ft | 215 kts | 3° |
| 2026-04-21 22:17 | 8.14878 | -72.50495 | 7238 ft | 215 kts | 4° |
| 2026-04-21 22:17 | 8.15632 | -72.50413 | 7078 ft | 214 kts | 15° |
| 2026-04-21 22:17 | 8.16931 | -72.49703 | 6764 ft | 212 kts | 46° |
| 2026-04-21 22:18 | 8.17706 | -72.48453 | 6456 ft | 212 kts | 73° |
| 2026-04-21 22:18 | 8.17812 | -72.46972 | 6143 ft | 215 kts | 101° |
| 2026-04-21 22:18 | 8.17216 | -72.45605 | 5838 ft | 217 kts | 129° |
| 2026-04-21 22:18 | 8.15964 | -72.44745 | 5537 ft | 220 kts | 164° |
| 2026-04-21 22:19 | 8.14439 | -72.44598 | 5252 ft | 220 kts | 185° |
| 2026-04-21 22:19 | 8.12946 | -72.44881 | 4975 ft | 220 kts | 195° |
| 2026-04-21 22:19 | 8.11522 | -72.45318 | 4867 ft | 206 kts | 197° |
| 2026-04-21 22:19 | 8.10164 | -72.45765 | 4596 ft | 202 kts | 197° |
| 2026-04-21 22:20 | 8.08831 | -72.46195 | 4334 ft | 198 kts | 197° |
| 2026-04-21 22:20 | 8.07523 | -72.46605 | 4076 ft | 194 kts | 197° |
| 2026-04-21 22:20 | 8.06230 | -72.47003 | 3800 ft | 190 kts | 197° |
| 2026-04-21 22:20 | 8.04969 | -72.47390 | 3530 ft | 187 kts | 197° |
| 2026-04-21 22:21 | 8.03742 | -72.47767 | 3191 ft | 181 kts | 197° |
| 2026-04-21 22:21 | 8.02546 | -72.48135 | 2853 ft | 177 kts | 197° |
| 2026-04-21 22:21 | 8.01387 | -72.48491 | 2589 ft | 167 kts | 197° |
| 2026-04-21 22:21 | 8.00269 | -72.48835 | 2371 ft | 164 kts | 198° |
| 2026-04-21 22:22 | 7.99189 | -72.49168 | 2177 ft | 158 kts | 198° |
| 2026-04-21 22:22 | 7.98167 | -72.49483 | 1964 ft | 149 kts | 198° |
| 2026-04-21 22:22 | 7.97172 | -72.49790 | 1788 ft | 149 kts | 198° |
| 2026-04-21 22:22 | 7.96177 | -72.50098 | 1612 ft | 148 kts | 198° |
| 2026-04-21 22:23 | 7.95193 | -72.50402 | 1428 ft | 147 kts | 198° |
| 2026-04-21 22:23 | 7.94215 | -72.50705 | 1252 ft | 146 kts | 198° |
| 2026-04-21 22:23 | 7.93248 | -72.51004 | 1077 ft | 141 kts | 198° |
| 2026-04-21 22:23 | 7.92480 | -72.51243 | 1069 ft | 74 kts | 197° |
| 2026-04-21 22:24 | 7.92183 | -72.51334 | 1072 ft | 34 kts | 196° |
| 2026-04-21 22:24 | 7.91962 | -72.51402 | 1076 ft | 31 kts | 196° |
| 2026-04-21 22:24 | 7.91811 | -72.51425 | 1079 ft | 10 kts | 215° |
| 2026-04-21 22:24 | 7.91862 | -72.51437 | 1077 ft | 11 kts | 19° |
| 2026-04-21 22:25 | 7.91950 | -72.51408 | 1076 ft | 14 kts | 17° |
| 2026-04-21 22:25 | 7.92065 | -72.51372 | 1074 ft | 19 kts | 17° |
| 2026-04-21 22:25 | 7.92207 | -72.51328 | 1072 ft | 23 kts | 17° |
| 2026-04-21 22:25 | 7.92370 | -72.51276 | 1070 ft | 26 kts | 17° |
| 2026-04-21 22:26 | 7.92553 | -72.51221 | 1067 ft | 28 kts | 17° |
| 2026-04-21 22:26 | 7.92712 | -72.51156 | 1065 ft | 16 kts | 54° |
| 2026-04-21 22:26 | 7.92766 | -72.51067 | 1064 ft | 11 kts | 63° |
| 2026-04-21 22:26 | 7.92778 | -72.51026 | 1064 ft | 6 kts | 87° |
| 2026-04-21 22:27 | 7.92795 | -72.50977 | 1063 ft | 8 kts | 62° |
| 2026-04-21 22:27 | 7.92832 | -72.50916 | 1062 ft | 11 kts | 44° |
| 2026-04-21 22:27 | 7.92869 | -72.50858 | 1061 ft | 11 kts | 110° |
| 2026-04-21 22:27 | 7.92839 | -72.50811 | 1061 ft | 5 kts | 180° |
| 2026-04-21 22:28 | 7.92805 | -72.50825 | 1061 ft | 5 kts | 207° |
| 2026-04-21 22:28 | 7.92786 | -72.50834 | 1062 ft | 0 kts | 205° |
| 2026-04-21 22:28 | 7.92786 | -72.50835 | 1062 ft | 0 kts | 205° |